sensor_id;sensor_type;location;lat;lon;timestamp;pressure;altitude;pressure_sealevel;temperature;humidity
57572;BME280;44459;43.522;24.470;2023-07-09T00:01:15;100418.72;;;18.33;98.60
57572;BME280;44459;43.522;24.470;2023-07-09T00:03:42;100412.53;;;18.32;100.00
57572;BME280;44459;43.522;24.470;2023-07-09T00:06:08;100416.19;;;18.28;100.00
57572;BME280;44459;43.522;24.470;2023-07-09T00:08:34;100407.38;;;18.23;100.00
57572;BME280;44459;43.522;24.470;2023-07-09T00:10:59;100405.63;;;18.22;99.97
57572;BME280;44459;43.522;24.470;2023-07-09T00:13:26;100400.53;;;18.12;100.00
57572;BME280;44459;43.522;24.470;2023-07-09T00:15:56;100404.03;;;18.15;100.00
57572;BME280;44459;43.522;24.470;2023-07-09T00:18:22;100399.66;;;18.09;100.00
57572;BME280;44459;43.522;24.470;2023-07-09T00:20:48;100400.53;;;18.12;99.99
57572;BME280;44459;43.522;24.470;2023-07-09T00:23:13;100396.03;;;18.12;99.88
57572;BME280;44459;43.522;24.470;2023-07-09T00:25:43;100393.56;;;18.04;99.05
57572;BME280;44459;43.522;24.470;2023-07-09T00:28:27;100405.91;;;18.08;99.14
57572;BME280;44459;43.522;24.470;2023-07-09T00:30:52;100411.25;;;18.10;99.19
57572;BME280;44459;43.522;24.470;2023-07-09T00:33:18;100406.03;;;18.04;99.56
57572;BME280;44459;43.522;24.470;2023-07-09T00:35:47;100412.31;;;18.01;99.54
57572;BME280;44459;43.522;24.470;2023-07-09T00:38:18;100409.75;;;17.97;99.64
57572;BME280;44459;43.522;24.470;2023-07-09T00:43:30;100406.25;;;17.93;100.00
57572;BME280;44459;43.522;24.470;2023-07-09T00:48:55;100403.59;;;17.93;100.00
57572;BME280;44459;43.522;24.470;2023-07-09T00:51:23;100406.25;;;17.93;99.76
57572;BME280;44459;43.522;24.470;2023-07-09T00:53:52;100406.34;;;17.90;100.00
57572;BME280;44459;43.522;24.470;2023-07-09T00:56:35;100401.91;;;17.88;100.00
57572;BME280;44459;43.522;24.470;2023-07-09T00:59:07;100407.38;;;17.83;100.00
57572;BME280;44459;43.522;24.470;2023-07-09T01:01:34;100408.28;;;17.81;99.96
57572;BME280;44459;43.522;24.470;2023-07-09T01:04:01;100409.31;;;17.75;100.00
57572;BME280;44459;43.522;24.470;2023-07-09T01:06:36;100417.31;;;17.77;100.00
57572;BME280;44459;43.522;24.470;2023-07-09T01:09:04;100419.19;;;17.70;100.00
57572;BME280;44459;43.522;24.470;2023-07-09T01:11:29;100425.59;;;17.63;100.00
57572;BME280;44459;43.522;24.470;2023-07-09T01:13:58;100432.66;;;17.64;100.00
57572;BME280;44459;43.522;24.470;2023-07-09T01:16:27;100433.47;;;17.69;100.00
57572;BME280;44459;43.522;24.470;2023-07-09T01:18:54;100420.13;;;17.68;100.00
57572;BME280;44459;43.522;24.470;2023-07-09T01:21:20;100436.91;;;17.76;100.00
57572;BME280;44459;43.522;24.470;2023-07-09T01:23:46;100440.47;;;17.75;100.00
57572;BME280;44459;43.522;24.470;2023-07-09T01:26:15;100445.81;;;17.75;100.00
57572;BME280;44459;43.522;24.470;2023-07-09T01:28:41;100439.66;;;17.71;100.00
57572;BME280;44459;43.522;24.470;2023-07-09T01:31:09;100439.75;;;17.67;100.00
57572;BME280;44459;43.522;24.470;2023-07-09T01:33:34;100448.75;;;17.61;100.00
57572;BME280;44459;43.522;24.470;2023-07-09T01:36:00;100442.63;;;17.53;100.00
57572;BME280;44459;43.522;24.470;2023-07-09T01:38:29;100448.91;;;17.52;100.00
57572;BME280;44459;43.522;24.470;2023-07-09T01:40:57;100454.31;;;17.46;100.00
57572;BME280;44459;43.522;24.470;2023-07-09T01:43:23;100457.00;;;17.46;100.00
57572;BME280;44459;43.522;24.470;2023-07-09T01:45:50;100471.38;;;17.39;100.00
57572;BME280;44459;43.522;24.470;2023-07-09T01:48:17;100474.06;;;17.39;100.00
57572;BME280;44459;43.522;24.470;2023-07-09T01:50:46;100477.88;;;17.23;100.00
57572;BME280;44459;43.522;24.470;2023-07-09T01:53:12;100471.06;;;17.06;100.00
57572;BME280;44459;43.522;24.470;2023-07-09T01:55:38;100476.38;;;17.06;100.00
57572;BME280;44459;43.522;24.470;2023-07-09T01:58:04;100458.66;;;17.02;100.00
57572;BME280;44459;43.522;24.470;2023-07-09T02:00:33;100477.16;;;17.15;100.00
57572;BME280;44459;43.522;24.470;2023-07-09T02:03:00;100467.38;;;17.12;100.00
57572;BME280;44459;43.522;24.470;2023-07-09T02:05:29;100472.72;;;17.14;100.00
57572;BME280;44459;43.522;24.470;2023-07-09T02:07:55;100469.22;;;17.08;100.00
57572;BME280;44459;43.522;24.470;2023-07-09T02:10:20;100476.50;;;17.00;100.00
57572;BME280;44459;43.522;24.470;2023-07-09T02:12:46;100484.50;;;16.99;100.00
57572;BME280;44459;43.522;24.470;2023-07-09T02:15:12;100495.34;;;16.88;100.00
57572;BME280;44459;43.522;24.470;2023-07-09T02:17:38;100487.34;;;16.88;100.00
57572;BME280;44459;43.522;24.470;2023-07-09T02:20:04;100482.94;;;16.86;100.00
57572;BME280;44459;43.522;24.470;2023-07-09T02:22:32;100489.22;;;16.80;100.00
57572;BME280;44459;43.522;24.470;2023-07-09T02:24:57;100492.81;;;16.79;100.00
57572;BME280;44459;43.522;24.470;2023-07-09T02:27:23;100492.88;;;16.76;100.00
57572;BME280;44459;43.522;24.470;2023-07-09T02:29:48;100491.03;;;16.80;100.00
57572;BME280;44459;43.522;24.470;2023-07-09T02:32:18;100499.88;;;16.82;100.00
57572;BME280;44459;43.522;24.470;2023-07-09T02:34:44;100497.28;;;16.79;100.00
57572;BME280;44459;43.522;24.470;2023-07-09T02:37:16;100504.38;;;16.80;100.00
57572;BME280;44459;43.522;24.470;2023-07-09T02:39:44;100499.94;;;16.77;100.00
57572;BME280;44459;43.522;24.470;2023-07-09T02:42:11;100496.44;;;16.74;100.00
57572;BME280;44459;43.522;24.470;2023-07-09T02:44:39;100500.94;;;16.70;100.00
57572;BME280;44459;43.522;24.470;2023-07-09T02:47:05;100503.66;;;16.67;100.00
57572;BME280;44459;43.522;24.470;2023-07-09T02:49:30;100505.47;;;16.65;100.00
57572;BME280;44459;43.522;24.470;2023-07-09T02:51:56;100502.91;;;16.59;100.00
57572;BME280;44459;43.522;24.470;2023-07-09T02:54:21;100504.69;;;16.54;100.00
57572;BME280;44459;43.522;24.470;2023-07-09T02:56:46;100511.81;;;16.53;100.00
57572;BME280;44459;43.522;24.470;2023-07-09T02:59:12;100514.50;;;16.52;100.00
57572;BME280;44459;43.522;24.470;2023-07-09T03:01:39;100498.59;;;16.46;100.00
57572;BME280;44459;43.522;24.470;2023-07-09T03:04:04;100510.13;;;16.48;100.00
57572;BME280;44459;43.522;24.470;2023-07-09T03:06:31;100505.72;;;16.44;100.00
57572;BME280;44459;43.522;24.470;2023-07-09T03:08:59;100511.03;;;16.47;100.00
57572;BME280;44459;43.522;24.470;2023-07-09T03:11:27;100499.44;;;16.49;100.00
57572;BME280;44459;43.522;24.470;2023-07-09T03:13:53;100505.66;;;16.50;100.00
57572;BME280;44459;43.522;24.470;2023-07-09T03:16:19;100507.41;;;16.49;100.00
57572;BME280;44459;43.522;24.470;2023-07-09T03:18:45;100507.41;;;16.51;100.00
57572;BME280;44459;43.522;24.470;2023-07-09T03:21:10;100514.47;;;16.55;100.00
57572;BME280;44459;43.522;24.470;2023-07-09T03:23:36;100519.78;;;16.58;100.00
57572;BME280;44459;43.522;24.470;2023-07-09T03:26:02;100514.47;;;16.55;100.00
57572;BME280;44459;43.522;24.470;2023-07-09T03:28:30;100514.50;;;16.52;100.00
57572;BME280;44459;43.522;24.470;2023-07-09T03:30:55;100516.34;;;16.45;100.00
57572;BME280;44459;43.522;24.470;2023-07-09T03:33:22;100521.66;;;16.48;100.00
57572;BME280;44459;43.522;24.470;2023-07-09T03:35:48;100529.56;;;16.59;100.00
57572;BME280;44459;43.522;24.470;2023-07-09T03:38:13;100521.41;;;16.68;100.00
57572;BME280;44459;43.522;24.470;2023-07-09T03:40:39;100518.56;;;16.80;100.00
57572;BME280;44459;43.522;24.470;2023-07-09T03:43:05;100524.63;;;16.91;100.00
57572;BME280;44459;43.522;24.470;2023-07-09T03:45:32;100536.84;;;17.07;100.00
57572;BME280;44459;43.522;24.470;2023-07-09T03:47:58;100537.56;;;17.17;100.00
57572;BME280;44459;43.522;24.470;2023-07-09T03:50:24;100534.78;;;17.25;100.00
57572;BME280;44459;43.522;24.470;2023-07-09T03:52:55;100527.47;;;17.36;100.00
57572;BME280;44459;43.522;24.470;2023-07-09T03:55:21;100537.06;;;17.47;100.00
57572;BME280;44459;43.522;24.470;2023-07-09T03:57:47;100529.81;;;17.55;100.00
57572;BME280;44459;43.522;24.470;2023-07-09T04:00:13;100534.09;;;17.66;100.00
57572;BME280;44459;43.522;24.470;2023-07-09T04:02:40;100532.25;;;17.69;100.00
57572;BME280;44459;43.522;24.470;2023-07-09T04:05:08;100527.66;;;17.77;100.00
57572;BME280;44459;43.522;24.470;2023-07-09T04:07:46;100527.34;;;17.94;100.00
57572;BME280;44459;43.522;24.470;2023-07-09T04:10:13;100534.97;;;18.14;100.00
57572;BME280;44459;43.522;24.470;2023-07-09T04:12:38;100538.16;;;18.32;100.00
57572;BME280;44459;43.522;24.470;2023-07-09T04:15:04;100541.38;;;18.48;100.00
57572;BME280;44459;43.522;24.470;2023-07-09T04:17:31;100550.94;;;18.61;100.00
57572;BME280;44459;43.522;24.470;2023-07-09T04:19:56;100552.47;;;18.73;100.00
57572;BME280;44459;43.522;24.470;2023-07-09T04:22:21;100553.84;;;18.90;99.91
57572;BME280;44459;43.522;24.470;2023-07-09T04:24:47;100551.81;;;19.01;98.66
57572;BME280;44459;43.522;24.470;2023-07-09T04:27:12;100554.09;;;19.18;97.72
57572;BME280;44459;43.522;24.470;2023-07-09T04:29:39;100546.72;;;19.28;96.08
57572;BME280;44459;43.522;24.470;2023-07-09T04:32:06;100542.09;;;19.34;97.19
57572;BME280;44459;43.522;24.470;2023-07-09T04:34:32;100544.34;;;19.52;97.04
57572;BME280;44459;43.522;24.470;2023-07-09T04:36:57;100547.53;;;19.67;94.89
57572;BME280;44459;43.522;24.470;2023-07-09T04:39:23;100549.03;;;19.78;94.91
57572;BME280;44459;43.522;24.470;2023-07-09T04:41:48;100546.78;;;19.95;94.18
57572;BME280;44459;43.522;24.470;2023-07-09T04:44:14;100549.72;;;20.17;94.96
57572;BME280;44459;43.522;24.470;2023-07-09T04:46:39;100554.50;;;20.38;94.77
57572;BME280;44459;43.522;24.470;2023-07-09T04:49:05;100566.63;;;20.51;92.21
57572;BME280;44459;43.522;24.470;2023-07-09T04:51:41;100557.38;;;20.63;90.63
57572;BME280;44459;43.522;24.470;2023-07-09T04:54:07;100575.81;;;20.74;88.41
57572;BME280;44459;43.522;24.470;2023-07-09T04:56:32;100567.25;;;20.90;89.18
57572;BME280;44459;43.522;24.470;2023-07-09T04:58:59;100575.31;;;21.20;88.86
57572;BME280;44459;43.522;24.470;2023-07-09T05:01:24;100568.66;;;21.31;84.34
57572;BME280;44459;43.522;24.470;2023-07-09T05:03:50;100577.13;;;21.47;88.41
57572;BME280;44459;43.522;24.470;2023-07-09T05:06:16;100572.88;;;21.66;86.48
57572;BME280;44459;43.522;24.470;2023-07-09T05:08:41;100571.72;;;21.73;84.14
57572;BME280;44459;43.522;24.470;2023-07-09T05:11:08;100580.31;;;21.84;82.45
57572;BME280;44459;43.522;24.470;2023-07-09T05:13:36;100579.38;;;21.85;82.91
57572;BME280;44459;43.522;24.470;2023-07-09T05:16:01;100581.38;;;22.06;82.15
57572;BME280;44459;43.522;24.470;2023-07-09T05:18:27;100574.72;;;22.17;81.06
57572;BME280;44459;43.522;24.470;2023-07-09T05:20:52;100575.91;;;22.33;83.56
57572;BME280;44459;43.522;24.470;2023-07-09T05:23:17;100580.47;;;22.55;81.48
57572;BME280;44459;43.522;24.470;2023-07-09T05:25:43;100579.84;;;22.72;79.50
57572;BME280;44459;43.522;24.470;2023-07-09T05:28:09;100578.16;;;22.70;79.78
57572;BME280;44459;43.522;24.470;2023-07-09T05:30:34;100580.09;;;22.89;82.28
57572;BME280;44459;43.522;24.470;2023-07-09T05:33:00;100580.28;;;23.06;80.08
57572;BME280;44459;43.522;24.470;2023-07-09T05:35:26;100589.38;;;23.26;79.52
57572;BME280;44459;43.522;24.470;2023-07-09T05:37:55;100580.44;;;23.25;78.47
57572;BME280;44459;43.522;24.470;2023-07-09T05:40:21;100585.53;;;23.54;76.92
57572;BME280;44459;43.522;24.470;2023-07-09T05:42:47;100585.13;;;23.85;78.40
57572;BME280;44459;43.522;24.470;2023-07-09T05:45:14;100589.03;;;24.20;76.87
57572;BME280;44459;43.522;24.470;2023-07-09T05:47:39;100586.06;;;24.26;75.69
57572;BME280;44459;43.522;24.470;2023-07-09T05:50:05;100580.47;;;24.31;67.62
57572;BME280;44459;43.522;24.470;2023-07-09T05:52:31;100584.22;;;24.06;68.66
57572;BME280;44459;43.522;24.470;2023-07-09T05:54:56;100589.84;;;23.80;66.89
57572;BME280;44459;43.522;24.470;2023-07-09T05:57:22;100593.72;;;23.53;69.26
57572;BME280;44459;43.522;24.470;2023-07-09T05:59:48;100595.31;;;23.57;71.29
57572;BME280;44459;43.522;24.470;2023-07-09T06:02:16;100590.75;;;24.01;70.17
57572;BME280;44459;43.522;24.470;2023-07-09T06:04:43;100585.41;;;24.21;71.47
57572;BME280;44459;43.522;24.470;2023-07-09T06:07:09;100582.03;;;24.55;71.09
57572;BME280;44459;43.522;24.470;2023-07-09T06:09:35;100591.41;;;24.67;66.64
57572;BME280;44459;43.522;24.470;2023-07-09T06:12:01;100589.31;;;24.73;65.25
57572;BME280;44459;43.522;24.470;2023-07-09T06:14:27;100586.66;;;24.92;66.17
57572;BME280;44459;43.522;24.470;2023-07-09T06:16:53;100568.69;;;25.10;66.07
57572;BME280;44459;43.522;24.470;2023-07-09T06:19:18;100577.81;;;25.26;62.90
57572;BME280;44459;43.522;24.470;2023-07-09T06:21:43;100586.59;;;25.48;64.56
57572;BME280;44459;43.522;24.470;2023-07-09T06:24:09;100574.47;;;25.75;66.34
57572;BME280;44459;43.522;24.470;2023-07-09T06:26:34;100578.91;;;25.93;61.50
57572;BME280;44459;43.522;24.470;2023-07-09T06:29:00;100577.78;;;26.15;63.72
57572;BME280;44459;43.522;24.470;2023-07-09T06:31:26;100580.91;;;26.24;62.87
57572;BME280;44459;43.522;24.470;2023-07-09T06:33:52;100570.06;;;26.41;61.20
57572;BME280;44459;43.522;24.470;2023-07-09T06:36:19;100567.72;;;26.18;59.25
57572;BME280;44459;43.522;24.470;2023-07-09T06:38:45;100573.97;;;26.01;59.66
57572;BME280;44459;43.522;24.470;2023-07-09T06:41:11;100567.53;;;26.21;61.66
57572;BME280;44459;43.522;24.470;2023-07-09T06:43:37;100562.59;;;26.46;60.54
57572;BME280;44459;43.522;24.470;2023-07-09T06:46:07;100563.38;;;26.81;61.62
57572;BME280;44459;43.522;24.470;2023-07-09T06:48:34;100560.53;;;27.16;58.31
57572;BME280;44459;43.522;24.470;2023-07-09T06:51:00;100560.63;;;27.14;56.70
57572;BME280;44459;43.522;24.470;2023-07-09T06:53:27;100555.53;;;27.08;53.81
57572;BME280;44459;43.522;24.470;2023-07-09T06:55:52;100549.25;;;27.08;54.92
57572;BME280;44459;43.522;24.470;2023-07-09T06:58:21;100561.38;;;27.00;52.40
57572;BME280;44459;43.522;24.470;2023-07-09T07:00:48;100556.44;;;26.93;54.21
57572;BME280;44459;43.522;24.470;2023-07-09T07:03:15;100549.78;;;26.98;52.05
57572;BME280;44459;43.522;24.470;2023-07-09T07:05:48;100546.81;;;27.03;50.59
57572;BME280;44459;43.522;24.470;2023-07-09T07:08:17;100553.91;;;26.73;48.75
57572;BME280;44459;43.522;24.470;2023-07-09T07:10:43;100549.78;;;26.98;50.77
57572;BME280;44459;43.522;24.470;2023-07-09T07:13:09;100543.22;;;27.18;53.52
57572;BME280;44459;43.522;24.470;2023-07-09T07:15:37;100547.88;;;26.68;49.87
57572;BME280;44459;43.522;24.470;2023-07-09T07:18:03;100549.28;;;26.75;51.69
57572;BME280;44459;43.522;24.470;2023-07-09T07:20:29;100547.78;;;26.69;49.64
57572;BME280;44459;43.522;24.470;2023-07-09T07:22:55;100538.66;;;26.87;48.11
57572;BME280;44459;43.522;24.470;2023-07-09T07:25:21;100549.63;;;27.17;49.07
57572;BME280;44459;43.522;24.470;2023-07-09T07:27:47;100547.78;;;26.86;47.85
57572;BME280;44459;43.522;24.470;2023-07-09T07:30:13;100548.91;;;27.14;48.26
57572;BME280;44459;43.522;24.470;2023-07-09T07:32:43;100542.78;;;27.26;49.24
57572;BME280;44459;43.522;24.470;2023-07-09T07:35:09;100537.72;;;27.20;47.86
57572;BME280;44459;43.522;24.470;2023-07-09T07:37:34;100537.59;;;27.37;46.11
57572;BME280;44459;43.522;24.470;2023-07-09T07:40:00;100548.28;;;27.40;46.46
57572;BME280;44459;43.522;24.470;2023-07-09T07:42:26;100535.88;;;27.20;48.72
57572;BME280;44459;43.522;24.470;2023-07-09T07:44:51;100536.38;;;27.58;47.18
57572;BME280;44459;43.522;24.470;2023-07-09T07:47:17;100537.41;;;27.71;47.65
57572;BME280;44459;43.522;24.470;2023-07-09T07:49:43;100536.19;;;27.61;49.47
57572;BME280;44459;43.522;24.470;2023-07-09T07:52:09;100526.63;;;27.99;49.26
57572;BME280;44459;43.522;24.470;2023-07-09T07:54:35;100530.31;;;27.98;45.94
57572;BME280;44459;43.522;24.470;2023-07-09T07:57:01;100536.47;;;28.16;44.88
57572;BME280;44459;43.522;24.470;2023-07-09T07:59:27;100526.19;;;28.07;43.87
57572;BME280;44459;43.522;24.470;2023-07-09T08:01:52;100523.19;;;28.26;47.23
57572;BME280;44459;43.522;24.470;2023-07-09T08:04:18;100515.69;;;28.73;48.55
57572;BME280;44459;43.522;24.470;2023-07-09T08:06:43;100526.13;;;29.08;43.83
57572;BME280;44459;43.522;24.470;2023-07-09T08:09:09;100518.38;;;29.02;44.42
57572;BME280;44459;43.522;24.470;2023-07-09T08:11:34;100525.56;;;28.88;45.98
57572;BME280;44459;43.522;24.470;2023-07-09T08:14:00;100520.28;;;28.99;45.03
57572;BME280;44459;43.522;24.470;2023-07-09T08:16:26;100521.09;;;29.02;42.69
57572;BME280;44459;43.522;24.470;2023-07-09T08:18:52;100516.69;;;28.99;43.30
57572;BME280;44459;43.522;24.470;2023-07-09T08:21:18;100514.78;;;28.87;43.67
57572;BME280;44459;43.522;24.470;2023-07-09T08:23:44;100511.31;;;28.71;45.90
57572;BME280;44459;43.522;24.470;2023-07-09T08:26:09;100497.53;;;28.60;45.04
57572;BME280;44459;43.522;24.470;2023-07-09T08:28:35;100513.31;;;28.81;44.34
57572;BME280;44459;43.522;24.470;2023-07-09T08:31:00;100512.34;;;28.54;44.11
57572;BME280;44459;43.522;24.470;2023-07-09T08:33:26;100514.31;;;28.52;44.60
57572;BME280;44459;43.522;24.470;2023-07-09T08:35:53;100517.72;;;28.70;44.95
57572;BME280;44459;43.522;24.470;2023-07-09T08:38:20;100508.75;;;28.96;46.95
57572;BME280;44459;43.522;24.470;2023-07-09T08:40:54;100507.41;;;29.16;42.70
57572;BME280;44459;43.522;24.470;2023-07-09T08:46:06;100508.03;;;29.07;46.27
57572;BME280;44459;43.522;24.470;2023-07-09T08:48:34;100509.75;;;29.22;43.78
57572;BME280;44459;43.522;24.470;2023-07-09T08:53:48;100503.84;;;29.29;43.29
57572;BME280;44459;43.522;24.470;2023-07-09T08:56:16;100514.16;;;29.10;44.32
57572;BME280;44459;43.522;24.470;2023-07-09T08:58:43;100521.84;;;29.04;43.47
57572;BME280;44459;43.522;24.470;2023-07-09T09:01:24;100526.22;;;28.92;41.36
57572;BME280;44459;43.522;24.470;2023-07-09T09:03:55;100515.25;;;29.08;45.23
57572;BME280;44459;43.522;24.470;2023-07-09T09:06:30;100523.91;;;29.41;42.11
57572;BME280;44459;43.522;24.470;2023-07-09T09:09:23;100518.84;;;29.62;44.09
57572;BME280;44459;43.522;24.470;2023-07-09T09:12:17;100521.81;;;29.71;41.66
57572;BME280;44459;43.522;24.470;2023-07-09T09:14:46;100516.91;;;29.90;43.06
57572;BME280;44459;43.522;24.470;2023-07-09T09:17:17;100509.94;;;29.72;43.14
57572;BME280;44459;43.522;24.470;2023-07-09T09:19:47;100517.91;;;29.75;41.96
57572;BME280;44459;43.522;24.470;2023-07-09T09:22:18;100520.41;;;29.39;39.06
57572;BME280;44459;43.522;24.470;2023-07-09T09:27:20;100525.72;;;28.99;42.79
57572;BME280;44459;43.522;24.470;2023-07-09T09:29:46;100516.63;;;29.41;40.51
57572;BME280;44459;43.522;24.470;2023-07-09T09:32:20;100526.31;;;29.45;39.92
57572;BME280;44459;43.522;24.470;2023-07-09T09:34:47;100519.38;;;29.54;40.09
57572;BME280;44459;43.522;24.470;2023-07-09T09:37:15;100513.16;;;29.52;40.28
57572;BME280;44459;43.522;24.470;2023-07-09T09:39:48;100513.06;;;29.13;42.10
57572;BME280;44459;43.522;24.470;2023-07-09T09:42:13;100517.25;;;29.32;41.90
57572;BME280;44459;43.522;24.470;2023-07-09T09:44:44;100517.72;;;29.25;41.71
57572;BME280;44459;43.522;24.470;2023-07-09T09:47:11;100508.28;;;28.89;41.45
57572;BME280;44459;43.522;24.470;2023-07-09T09:49:43;100509.38;;;29.14;44.75
57572;BME280;44459;43.522;24.470;2023-07-09T09:52:17;100511.34;;;29.65;41.76
57572;BME280;44459;43.522;24.470;2023-07-09T09:54:55;100508.47;;;29.54;44.89
57572;BME280;44459;43.522;24.470;2023-07-09T09:57:24;100504.91;;;29.93;44.98
57572;BME280;44459;43.522;24.470;2023-07-09T09:59:50;100509.06;;;29.99;41.33
57572;BME280;44459;43.522;24.470;2023-07-09T10:02:22;100507.00;;;29.63;41.21
57572;BME280;44459;43.522;24.470;2023-07-09T10:04:49;100502.97;;;29.68;44.30
57572;BME280;44459;43.522;24.470;2023-07-09T10:07:22;100503.63;;;29.99;42.75
57572;BME280;44459;43.522;24.470;2023-07-09T10:09:52;100505.91;;;29.92;42.71
57572;BME280;44459;43.522;24.470;2023-07-09T10:17:43;100499.97;;;30.50;41.46
57572;BME280;44459;43.522;24.470;2023-07-09T10:20:35;100495.16;;;30.41;39.73
57572;BME280;44459;43.522;24.470;2023-07-09T10:23:22;100500.81;;;30.13;39.38
57572;BME280;44459;43.522;24.470;2023-07-09T10:26:15;100499.72;;;29.76;39.28
57572;BME280;44459;43.522;24.470;2023-07-09T10:28:53;100497.56;;;29.41;41.81
57572;BME280;44459;43.522;24.470;2023-07-09T10:31:36;100493.53;;;29.47;40.40
57572;BME280;44459;43.522;24.470;2023-07-09T10:39:49;100487.22;;;29.73;40.02
57572;BME280;44459;43.522;24.470;2023-07-09T10:42:26;100486.28;;;30.00;39.69
57572;BME280;44459;43.522;24.470;2023-07-09T10:45:01;100482.94;;;30.09;41.44
57572;BME280;44459;43.522;24.470;2023-07-09T10:47:34;100481.84;;;29.99;44.36
57572;BME280;44459;43.522;24.470;2023-07-09T10:50:03;100486.84;;;29.65;40.16
57572;BME280;44459;43.522;24.470;2023-07-09T10:52:36;100476.53;;;29.70;41.42
57572;BME280;44459;43.522;24.470;2023-07-09T10:55:04;100482.81;;;29.98;41.96
57572;BME280;44459;43.522;24.470;2023-07-09T11:00:00;100476.53;;;29.70;41.45
57572;BME280;44459;43.522;24.470;2023-07-09T11:02:30;100478.78;;;29.90;41.16
57572;BME280;44459;43.522;24.470;2023-07-09T11:04:58;100472.88;;;29.96;41.42
57572;BME280;44459;43.522;24.470;2023-07-09T11:10:23;100483.81;;;30.09;38.33
57572;BME280;44459;43.522;24.470;2023-07-09T11:13:05;100475.63;;;29.96;39.86
57572;BME280;44459;43.522;24.470;2023-07-09T11:15:35;100477.72;;;30.06;39.40
57572;BME280;44459;43.522;24.470;2023-07-09T11:18:04;100480.75;;;30.52;41.42
57572;BME280;44459;43.522;24.470;2023-07-09T11:20:42;100485.94;;;30.80;39.07
57572;BME280;44459;43.522;24.470;2023-07-09T11:23:22;100478.31;;;30.72;41.33
57572;BME280;44459;43.522;24.470;2023-07-09T11:28:34;100474.84;;;31.07;40.61
57572;BME280;44459;43.522;24.470;2023-07-09T11:31:14;100480.78;;;31.01;36.01
57572;BME280;44459;43.522;24.470;2023-07-09T11:33:47;100481.97;;;31.09;37.00
57572;BME280;44459;43.522;24.470;2023-07-09T11:36:23;100475.16;;;31.15;36.27
57572;BME280;44459;43.522;24.470;2023-07-09T11:38:49;100473.00;;;30.58;37.11
57572;BME280;44459;43.522;24.470;2023-07-09T11:44:22;100471.56;;;30.78;37.56
57572;BME280;44459;43.522;24.470;2023-07-09T11:49:45;100461.19;;;31.19;39.26
57572;BME280;44459;43.522;24.470;2023-07-09T11:52:12;100449.97;;;31.11;37.32
57572;BME280;44459;43.522;24.470;2023-07-09T11:54:38;100461.34;;;31.29;36.67
57572;BME280;44459;43.522;24.470;2023-07-09T11:57:10;100461.16;;;30.95;36.75
57572;BME280;44459;43.522;24.470;2023-07-09T11:59:41;100453.47;;;31.13;39.18
57572;BME280;44459;43.522;24.470;2023-07-09T12:02:20;100458.09;;;30.87;38.31
57572;BME280;44459;43.522;24.470;2023-07-09T12:04:51;100452.34;;;30.79;37.47
57572;BME280;44459;43.522;24.470;2023-07-09T12:07:20;100449.88;;;31.13;38.43
57572;BME280;44459;43.522;24.470;2023-07-09T12:09:47;100445.13;;;31.38;38.32
57572;BME280;44459;43.522;24.470;2023-07-09T12:12:24;100444.06;;;31.41;36.67
57572;BME280;44459;43.522;24.470;2023-07-09T12:14:50;100452.50;;;31.49;38.93
57572;BME280;44459;43.522;24.470;2023-07-09T12:17:16;100437.06;;;31.61;38.01
57572;BME280;44459;43.522;24.470;2023-07-09T12:19:42;100449.78;;;31.84;35.15
57572;BME280;44459;43.522;24.470;2023-07-09T12:22:17;100435.81;;;32.00;37.21
57572;BME280;44459;43.522;24.470;2023-07-09T12:24:44;100437.78;;;31.98;39.39
57572;BME280;44459;43.522;24.470;2023-07-09T12:29:46;100434.84;;;31.42;35.77
57572;BME280;44459;43.522;24.470;2023-07-09T12:32:15;100422.97;;;31.43;34.49
57572;BME280;44459;43.522;24.470;2023-07-09T12:34:41;100427.84;;;31.51;36.21
57572;BME280;44459;43.522;24.470;2023-07-09T12:37:13;100426.00;;;31.62;38.83
57572;BME280;44459;43.522;24.470;2023-07-09T12:39:39;100418.75;;;31.74;38.56
57572;BME280;44459;43.522;24.470;2023-07-09T12:42:05;100422.59;;;31.71;35.46
57572;BME280;44459;43.522;24.470;2023-07-09T12:44:34;100414.78;;;31.78;36.85
57572;BME280;44459;43.522;24.470;2023-07-09T12:47:01;100417.78;;;31.86;36.81
57572;BME280;44459;43.522;24.470;2023-07-09T12:49:29;100417.41;;;31.79;36.79
57572;BME280;44459;43.522;24.470;2023-07-09T12:52:01;100414.16;;;31.74;35.51
57572;BME280;44459;43.522;24.470;2023-07-09T12:54:29;100417.03;;;31.49;35.52
57572;BME280;44459;43.522;24.470;2023-07-09T12:56:56;100419.16;;;31.22;35.76
57572;BME280;44459;43.522;24.470;2023-07-09T12:59:36;100421.28;;;31.29;36.62
57572;BME280;44459;43.522;24.470;2023-07-09T13:02:14;100415.38;;;31.12;35.39
57572;BME280;44459;43.522;24.470;2023-07-09T13:04:40;100420.56;;;31.38;39.95
57572;BME280;44459;43.522;24.470;2023-07-09T13:07:29;100409.25;;;31.56;35.43
57572;BME280;44459;43.522;24.470;2023-07-09T13:09:55;100411.44;;;31.85;36.69
57572;BME280;44459;43.522;24.470;2023-07-09T13:12:30;100407.22;;;31.81;36.14
57572;BME280;44459;43.522;24.470;2023-07-09T13:14:56;100418.25;;;31.80;37.86
57572;BME280;44459;43.522;24.470;2023-07-09T13:17:22;100405.28;;;31.60;36.15
57572;BME280;44459;43.522;24.470;2023-07-09T13:19:47;100404.81;;;31.66;35.48
57572;BME280;44459;43.522;24.470;2023-07-09T13:22:18;100401.31;;;31.29;35.50
57572;BME280;44459;43.522;24.470;2023-07-09T13:24:47;100409.22;;;31.21;36.39